Aeroporto :
LOGIN :

Iscrizione | Disclaimer

   EN    FR    IT 

 










Sommario :    VFR   VFR Marginale   IFR   IFR Intensivo   IFR Molto Intensivo
Visibilità : 
Base nubi : 
>= 8 km
>= 3000ft
5 / 8 km
1000 / 3000 ft
1500m / 5 km
500 / 1000 ft
800 / 1500m
200 / 500 ft
< 800m
< 200 ft
Simboli :   Temporali  Nebbia  Neve Forte  Precipitazioni Forti  Vento > 20 kt
SIGMETs :   Varie  Temporali  Ghiacco  Turbolenza  Onda orograficha  Ceneri Vulcaniche






- Altitudine del aeroporto : 83 ft
- Codice IATA : LHR


EGLL - London Heathrow

ULTIMO METAR :
  • 301020Z AUTO 20010KT 150V230 9999 NCD 14/10 Q1008 NOSIG

METARs OBSOLETI :
  • 300950Z AUTO 22006KT 9999 NCD 13/10 Q1008 NOSIG
  • 300920Z AUTO 22005KT 170V250 9999 NCD 11/10 Q1008 NOSIG
  • 300850Z 23005KT 180V260 8000 SCT002 10/09 Q1009 BECMG 9999
  • 300820Z 22005KT 190V250 2000 R27L/0900N BR BKN001 09/09 Q1009 BECMG 9999 FEW003
  • 300750Z AUTO 22006KT 0550 R27R/0650N R27L/0400N FG VV/// 08/08 Q1009 BECMG 9999 FEW002
  • 300720Z AUTO 22005KT 180V250 0450 R27R/0400D R27L/0375N FG VV/// 08/08 Q1009 NOSIG

TAF AMD TAF EGLL
Valido dal 30 a 06 ore il 01 a 12 ore UTC


300644Z 3006/0112 21002KT 0300 FG VV///
BECMG 3007/3010 21012KT 9999 NSW FEW005
BECMG 3014/3017 21015G29KT
TEMPO 3014/3021 6000 RA BKN012
PROB30
TEMPO 3016/3021 3000 +RA BKN008
BECMG 3020/3022 25008KT
PROB30
TEMPO 3021/3022 BKN008



MetMap, La meteo Aeronautica in un colpo d'occhio ! - Copyright ORBIFLY Dicembre 2007 - Disclaimer

ORBIFLY MET'MAP TEAM :

Programmazione e sviluppo : Alexandra Zaïnal
Concezione : Baudouin d'Aumeries
Supporto tecnico e logistico : Manuel Goepfert
Aiuto : Marc-Olivier Méhu
Aiuto per la traduzione : Arnaldo La Scala




FONTI E CREDITI :

   NOAA